Time;durP1;ratioP1;P1;durP2;ratioP2;P2;SDS_P1;SDS_P2;PMS_P1;PMS_P2;Temp;Humidity;BMP_temperature;BMP_pressure;BME280_temperature;BME280_humidity;BME280_pressure;Samples;Min_cycle;Max_cycle;Signal;HPM_P1;HPM_P2
2023/05/07 00:01:36;;;;;;;10.67;8.73;;;15.70;28.20;;;;;;5094324;28;21507;-65
2023/05/07 00:04:05;;;;;;;14.30;7.60;;;15.70;28.50;;;;;;5084276;28;20464;-64
2023/05/07 00:06:32;;;;;;;11.03;8.00;;;15.70;28.40;;;;;;5089303;28;20464;-65
2023/05/07 00:09:00;;;;;;;9.80;7.20;;;15.70;28.50;;;;;;5091057;28;20448;-63
2023/05/07 00:11:27;;;;;;;9.30;7.07;;;15.70;28.50;;;;;;5091756;28;20452;-63
2023/05/07 00:13:55;;;;;;;11.70;7.70;;;15.60;28.50;;;;;;5094506;28;21002;-64
2023/05/07 00:16:22;;;;;;;9.60;7.10;;;15.60;28.50;;;;;;5094091;28;20459;-64
2023/05/07 00:18:48;;;;;;;13.20;7.90;;;15.60;28.70;;;;;;5093461;22;20914;-66
2023/05/07 00:21:16;;;;;;;10.70;7.30;;;15.50;29.00;;;;;;5084610;28;20471;-67
2023/05/07 00:23:43;;;;;;;10.57;7.37;;;15.50;28.90;;;;;;5075960;28;20485;-67
2023/05/07 00:26:10;;;;;;;10.73;7.87;;;15.50;29.00;;;;;;5073035;28;21271;-66
2023/05/07 00:28:37;;;;;;;10.80;7.63;;;15.50;29.20;;;;;;5068689;28;20461;-67
2023/05/07 00:31:03;;;;;;;9.23;6.60;;;15.40;29.10;;;;;;5068544;28;20496;-66
2023/05/07 00:33:30;;;;;;;10.43;6.97;;;15.40;29.10;;;;;;5065913;28;20460;-67
2023/05/07 00:35:57;;;;;;;8.50;6.80;;;15.40;29.20;;;;;;5069136;28;21032;-66
2023/05/07 00:38:25;;;;;;;8.37;6.73;;;15.30;29.30;;;;;;5065079;28;20462;-66
2023/05/07 00:40:51;;;;;;;11.50;6.90;;;15.30;29.40;;;;;;5068881;28;20469;-66
2023/05/07 00:43:18;;;;;;;10.23;6.80;;;15.30;29.60;;;;;;5067263;28;20879;-66
2023/05/07 00:45:45;;;;;;;10.40;6.80;;;15.20;29.80;;;;;;5060163;28;20484;-67
2023/05/07 00:48:12;;;;;;;9.83;7.17;;;15.20;29.80;;;;;;5073618;28;20483;-66
2023/05/07 00:50:39;;;;;;;8.67;6.70;;;15.20;29.90;;;;;;5068104;28;20601;-66
2023/05/07 00:53:07;;;;;;;10.23;7.50;;;15.20;29.90;;;;;;5069185;28;20538;-66
2023/05/07 00:55:37;;;;;;;9.10;7.40;;;15.10;29.80;;;;;;5067594;28;21003;-66
2023/05/07 00:58:03;;;;;;;11.53;7.20;;;15.10;29.80;;;;;;5069229;28;20929;-66
2023/05/07 01:00:30;;;;;;;11.07;6.83;;;15.10;30.00;;;;;;5071731;28;20465;-66
2023/05/07 01:02:57;;;;;;;8.40;6.63;;;15.10;30.10;;;;;;5069967;28;20483;-66
2023/05/07 01:05:25;;;;;;;11.57;7.50;;;15.00;30.30;;;;;;5068027;28;20488;-66
2023/05/07 01:07:54;;;;;;;9.80;7.33;;;15.00;30.30;;;;;;5066844;28;20944;-66
2023/05/07 01:10:20;;;;;;;10.03;7.00;;;15.00;30.40;;;;;;5070216;28;20464;-66
2023/05/07 01:12:50;;;;;;;10.73;7.33;;;15.00;30.60;;;;;;5066950;28;20466;-66
2023/05/07 01:15:18;;;;;;;9.53;6.97;;;14.90;30.70;;;;;;5063626;28;20516;-66
2023/05/07 01:17:45;;;;;;;10.13;7.90;;;14.90;30.60;;;;;;5064921;28;20548;-66
2023/05/07 01:20:13;;;;;;;9.20;6.63;;;14.90;31.00;;;;;;5067063;28;20453;-66
2023/05/07 01:22:42;;;;;;;10.37;7.13;;;14.90;30.90;;;;;;5066659;28;20484;-66
2023/05/07 01:25:09;;;;;;;16.47;7.30;;;14.80;30.90;;;;;;5068342;28;20488;-66
2023/05/07 01:27:36;;;;;;;10.40;6.97;;;14.80;30.90;;;;;;5065616;28;20457;-66
2023/05/07 01:30:04;;;;;;;10.80;6.50;;;14.80;31.00;;;;;;5069858;28;20516;-66
2023/05/07 01:32:36;;;;;;;8.70;6.33;;;14.80;31.20;;;;;;5067008;28;20994;-66
2023/05/07 01:35:05;;;;;;;9.17;6.60;;;14.80;31.20;;;;;;5061484;28;20485;-66
2023/05/07 01:37:32;;;;;;;9.33;6.90;;;14.80;31.30;;;;;;5068305;28;20476;-66
2023/05/07 01:40:02;;;;;;;10.90;6.83;;;14.80;31.50;;;;;;5070143;28;20460;-66
2023/05/07 01:42:30;;;;;;;8.00;6.20;;;14.80;31.50;;;;;;5069507;28;20484;-66
2023/05/07 01:44:56;;;;;;;7.93;5.27;;;14.70;31.60;;;;;;5067873;28;20492;-66
2023/05/07 01:47:24;;;;;;;8.73;6.10;;;14.70;31.50;;;;;;5064997;28;20457;-67
2023/05/07 01:49:51;;;;;;;8.93;6.13;;;14.70;31.80;;;;;;5062720;28;20465;-66
2023/05/07 01:52:18;;;;;;;10.20;5.93;;;14.70;31.70;;;;;;5063075;28;20463;-66
2023/05/07 01:54:45;;;;;;;12.23;6.00;;;14.70;31.50;;;;;;5063642;28;20484;-66
2023/05/07 01:57:13;;;;;;;9.67;6.67;;;14.70;31.40;;;;;;5062924;28;20463;-66
2023/05/07 01:59:39;;;;;;;8.63;6.13;;;14.70;31.20;;;;;;5062683;28;20472;-66
2023/05/07 02:02:06;;;;;;;9.17;5.70;;;14.70;31.10;;;;;;5058577;28;20473;-67
2023/05/07 02:04:33;;;;;;;8.63;5.30;;;14.60;30.90;;;;;;5059039;28;20512;-66
2023/05/07 02:06:59;;;;;;;8.87;5.33;;;14.60;30.80;;;;;;5068677;28;20540;-66
2023/05/07 02:09:26;;;;;;;7.87;5.60;;;14.60;30.80;;;;;;5073383;28;20479;-67
2023/05/07 02:11:53;;;;;;;13.80;5.73;;;14.60;30.80;;;;;;5067115;28;20468;-66
2023/05/07 02:14:21;;;;;;;8.17;6.40;;;14.60;30.80;;;;;;5067609;28;20507;-66
2023/05/07 02:16:48;;;;;;;9.70;5.60;;;14.60;30.90;;;;;;5065941;28;21106;-66
2023/05/07 02:19:14;;;;;;;7.77;5.73;;;14.60;30.90;;;;;;5072447;28;20452;-66
2023/05/07 02:21:41;;;;;;;11.47;6.37;;;14.60;30.80;;;;;;5067944;28;20467;-66
2023/05/07 02:24:08;;;;;;;8.17;5.73;;;14.60;30.60;;;;;;5068351;28;20493;-66
2023/05/07 02:26:35;;;;;;;7.03;5.13;;;14.50;30.70;;;;;;5066970;28;20460;-66
2023/05/07 02:29:01;;;;;;;8.10;5.30;;;14.50;30.60;;;;;;5072110;28;20461;-66
2023/05/07 02:31:29;;;;;;;10.03;6.43;;;14.50;30.80;;;;;;5068982;28;20469;-66
2023/05/07 02:33:56;;;;;;;10.90;5.83;;;14.40;30.90;;;;;;5070166;28;20456;-67
2023/05/07 02:36:23;;;;;;;10.63;6.40;;;14.30;31.40;;;;;;5071675;28;20457;-67
2023/05/07 02:38:49;;;;;;;9.43;5.97;;;14.30;31.50;;;;;;5066336;28;20457;-67
2023/05/07 02:41:16;;;;;;;13.57;7.93;;;14.30;31.60;;;;;;5063413;28;20465;-65
2023/05/07 02:43:43;;;;;;;7.93;5.50;;;14.20;31.70;;;;;;5064342;28;20480;-66
2023/05/07 02:46:10;;;;;;;10.80;6.47;;;14.20;31.80;;;;;;5070893;28;20873;-66
2023/05/07 02:48:38;;;;;;;10.07;6.40;;;14.20;31.90;;;;;;5070253;28;20469;-66
2023/05/07 02:51:06;;;;;;;8.80;6.30;;;14.10;32.20;;;;;;5067230;28;20464;-66
2023/05/07 02:53:32;;;;;;;11.63;6.37;;;14.20;32.10;;;;;;5069910;28;20495;-66
2023/05/07 02:56:02;;;;;;;9.50;7.27;;;14.10;32.40;;;;;;5065965;28;20489;-66
2023/05/07 02:58:29;;;;;;;9.40;7.47;;;14.00;32.50;;;;;;5059019;28;20571;-66
2023/05/07 03:00:55;;;;;;;10.77;8.87;;;14.00;32.80;;;;;;5062805;28;20473;-66
2023/05/07 03:03:22;;;;;;;11.30;8.67;;;14.00;32.70;;;;;;5061107;28;20492;-66
2023/05/07 03:05:50;;;;;;;10.80;8.00;;;14.00;32.60;;;;;;5061740;28;20493;-66
2023/05/07 03:08:17;;;;;;;9.23;7.50;;;14.00;32.60;;;;;;5067004;28;20465;-66
2023/05/07 03:10:43;;;;;;;10.70;8.00;;;14.00;32.60;;;;;;5062536;28;20484;-66
2023/05/07 03:13:10;;;;;;;8.40;6.93;;;14.00;32.60;;;;;;5059763;28;20530;-66
2023/05/07 03:15:37;;;;;;;12.20;6.77;;;14.00;32.70;;;;;;5061903;28;20488;-66
2023/05/07 03:18:04;;;;;;;8.17;6.57;;;14.00;32.80;;;;;;5063552;28;20945;-66
2023/05/07 03:20:31;;;;;;;9.43;7.30;;;13.90;32.80;;;;;;5060350;28;20461;-66
2023/05/07 03:22:59;;;;;;;10.23;6.00;;;13.90;32.60;;;;;;5060685;28;20577;-67
2023/05/07 03:25:25;;;;;;;10.20;7.27;;;13.90;32.70;;;;;;5068547;28;20481;-66
2023/05/07 03:27:52;;;;;;;11.73;7.80;;;13.90;32.80;;;;;;5063626;28;21045;-66
2023/05/07 03:30:19;;;;;;;13.50;6.40;;;13.90;33.00;;;;;;5070286;28;20459;-67
2023/05/07 03:32:46;;;;;;;13.30;6.73;;;13.80;32.90;;;;;;5067658;28;20525;-67
2023/05/07 03:35:13;;;;;;;9.43;6.37;;;13.80;33.00;;;;;;5069412;28;20481;-66
2023/05/07 03:37:40;;;;;;;10.33;7.07;;;13.80;33.10;;;;;;5069609;28;20470;-67
2023/05/07 03:40:10;;;;;;;8.60;5.80;;;13.70;33.30;;;;;;5070451;28;20461;-66
2023/05/07 03:42:36;;;;;;;8.23;5.57;;;13.60;33.80;;;;;;5069452;28;21390;-66
2023/05/07 03:45:04;;;;;;;8.37;5.87;;;13.60;33.80;;;;;;5076368;28;20476;-66
2023/05/07 03:47:30;;;;;;;8.60;5.93;;;13.60;33.90;;;;;;5074998;28;21015;-66
2023/05/07 03:49:57;;;;;;;8.20;5.73;;;13.50;34.00;;;;;;5063307;28;20476;-66
2023/05/07 03:52:25;;;;;;;12.00;7.07;;;13.50;34.30;;;;;;5074204;28;20467;-67
2023/05/07 03:54:52;;;;;;;10.13;5.90;;;13.50;34.50;;;;;;5070273;28;20508;-66
2023/05/07 03:57:20;;;;;;;9.63;6.80;;;13.50;34.40;;;;;;5069310;28;20974;-66
2023/05/07 03:59:47;;;;;;;11.90;6.33;;;13.50;34.60;;;;;;5074327;28;20464;-66
2023/05/07 04:02:14;;;;;;;8.63;6.00;;;13.40;34.50;;;;;;5070409;28;20491;-66
2023/05/07 04:04:40;;;;;;;9.27;5.87;;;13.40;34.60;;;;;;5077369;28;20483;-66
2023/05/07 04:07:07;;;;;;;9.20;6.40;;;13.40;34.60;;;;;;5072441;28;20472;-66
2023/05/07 04:09:34;;;;;;;11.43;7.30;;;13.40;34.80;;;;;;5075154;28;20488;-67
2023/05/07 04:12:01;;;;;;;8.63;6.00;;;13.50;34.80;;;;;;5070179;28;20462;-66
2023/05/07 04:14:30;;;;;;;10.00;6.07;;;13.50;34.80;;;;;;5073525;28;20485;-66
2023/05/07 04:16:56;;;;;;;9.93;6.30;;;13.50;34.80;;;;;;5070724;28;20487;-67
2023/05/07 04:19:23;;;;;;;10.23;6.27;;;13.50;34.70;;;;;;5075831;28;20456;-66
2023/05/07 04:21:50;;;;;;;7.67;5.70;;;13.50;34.80;;;;;;5065326;28;20458;-66
2023/05/07 04:24:17;;;;;;;11.53;6.57;;;13.50;34.60;;;;;;5071320;28;20576;-66
2023/05/07 04:26:43;;;;;;;9.00;6.83;;;13.60;34.50;;;;;;5073432;28;20464;-66
2023/05/07 04:29:11;;;;;;;11.53;6.60;;;13.60;34.40;;;;;;5073758;28;20827;-66
2023/05/07 04:31:39;;;;;;;9.10;7.10;;;13.70;34.50;;;;;;5067370;28;20460;-67
2023/05/07 04:34:07;;;;;;;9.97;6.57;;;13.70;34.50;;;;;;5069148;28;20856;-66
2023/05/07 04:36:33;;;;;;;10.47;6.87;;;13.80;34.20;;;;;;5064667;28;20468;-66
2023/05/07 04:39:00;;;;;;;10.20;7.30;;;13.90;34.10;;;;;;5072428;28;21256;-67
2023/05/07 04:41:27;;;;;;;9.97;6.80;;;14.00;33.90;;;;;;5072763;28;20464;-66
2023/05/07 04:43:54;;;;;;;9.10;6.03;;;14.10;33.60;;;;;;5071426;28;20553;-66
2023/05/07 04:46:21;;;;;;;8.70;6.10;;;14.20;33.30;;;;;;5074553;28;20708;-66
2023/05/07 04:48:49;;;;;;;10.10;5.73;;;14.20;33.10;;;;;;5065204;28;20842;-67
2023/05/07 04:51:15;;;;;;;7.40;5.50;;;14.30;32.90;;;;;;5074774;28;20472;-66
2023/05/07 04:53:43;;;;;;;7.83;4.90;;;14.30;32.60;;;;;;5071647;28;20869;-66
2023/05/07 04:56:09;;;;;;;7.93;5.70;;;14.30;32.40;;;;;;5072686;28;20493;-66
2023/05/07 04:58:36;;;;;;;8.13;5.57;;;14.40;32.10;;;;;;5074997;28;20826;-66
2023/05/07 05:01:03;;;;;;;11.77;5.93;;;14.70;31.70;;;;;;5071721;28;20477;-66
2023/05/07 05:03:29;;;;;;;9.13;5.77;;;15.10;30.80;;;;;;5069189;28;20525;-67
2023/05/07 05:05:59;;;;;;;7.40;5.57;;;16.00;29.20;;;;;;5070299;28;21183;-66
2023/05/07 05:08:26;;;;;;;8.33;5.10;;;17.30;24.40;;;;;;5071181;28;20469;-67
2023/05/07 05:10:53;;;;;;;9.80;5.80;;;18.70;20.10;;;;;;5064686;28;20465;-67
2023/05/07 05:13:19;;;;;;;9.73;5.40;;;19.80;17.30;;;;;;5072568;28;20468;-67
2023/05/07 05:15:46;;;;;;;9.67;5.30;;;20.90;14.60;;;;;;5069019;28;20487;-67
2023/05/07 05:18:13;;;;;;;7.67;5.37;;;21.80;12.30;;;;;;5071229;28;20467;-67
2023/05/07 05:20:40;;;;;;;10.50;5.43;;;22.80;10.50;;;;;;5064495;28;20979;-66
2023/05/07 05:23:08;;;;;;;7.47;4.97;;;23.90;8.60;;;;;;5068373;28;20535;-66
2023/05/07 05:25:35;;;;;;;8.00;5.80;;;25.00;6.60;;;;;;5074190;28;20487;-67
2023/05/07 05:28:02;;;;;;;8.50;4.40;;;26.10;4.40;;;;;;5067310;28;20461;-67
2023/05/07 05:30:29;;;;;;;9.13;4.60;;;27.10;2.60;;;;;;5074896;28;20457;-66
2023/05/07 05:32:55;;;;;;;7.70;4.80;;;27.70;1.00;;;;;;5074267;28;20464;-66
2023/05/07 05:35:22;;;;;;;8.43;4.47;;;28.50;1.00;;;;;;5069795;28;20853;-66
2023/05/07 05:37:49;;;;;;;6.60;4.57;;;28.80;1.00;;;;;;5070410;28;20476;-66
2023/05/07 05:40:17;;;;;;;6.50;4.67;;;29.40;1.00;;;;;;5070725;28;21003;-66
2023/05/07 05:42:44;;;;;;;6.20;3.93;;;30.50;1.00;;;;;;5073908;28;20456;-66
2023/05/07 05:45:11;;;;;;;7.70;4.37;;;31.50;1.00;;;;;;5070184;28;20487;-66
2023/05/07 05:47:38;;;;;;;5.90;4.10;;;32.20;1.00;;;;;;5069508;28;20480;-66
2023/05/07 05:50:07;;;;;;;6.20;3.97;;;33.00;1.00;;;;;;5068353;28;20461;-68
2023/05/07 05:52:33;;;;;;;5.83;4.17;;;33.60;1.00;;;;;;5060752;28;20470;-68
2023/05/07 05:55:00;;;;;;;6.07;3.80;;;34.30;1.00;;;;;;5066922;28;20477;-69
2023/05/07 05:57:28;;;;;;;7.97;4.03;;;34.80;1.00;;;;;;5064995;28;20860;-68
2023/05/07 05:59:55;;;;;;;5.03;3.17;;;35.10;1.00;;;;;;5068022;28;20469;-68
2023/05/07 06:02:21;;;;;;;7.10;4.13;;;35.40;1.00;;;;;;5066850;28;20480;-68
2023/05/07 06:04:48;;;;;;;6.80;4.27;;;35.40;1.00;;;;;;5068185;28;20489;-68
2023/05/07 06:07:15;;;;;;;6.77;4.27;;;35.50;1.00;;;;;;5074172;28;20465;-68
2023/05/07 06:09:41;;;;;;;5.70;4.50;;;35.70;1.00;;;;;;5069683;28;20468;-68
2023/05/07 06:12:08;;;;;;;6.83;4.30;;;36.50;1.00;;;;;;5078439;28;20464;-69
2023/05/07 06:14:36;;;;;;;6.10;4.17;;;37.40;1.00;;;;;;5072062;28;20480;-68
2023/05/07 06:17:03;;;;;;;6.17;4.10;;;38.30;1.00;;;;;;5061113;28;20493;-68
2023/05/07 06:19:30;;;;;;;6.80;4.30;;;39.00;1.00;;;;;;5065529;28;20473;-68
2023/05/07 06:21:57;;;;;;;4.70;3.40;;;39.50;1.00;;;;;;5062047;28;20475;-68
2023/05/07 06:24:24;;;;;;;6.77;4.07;;;40.20;1.00;;;;;;5085487;22;20538;-68
2023/05/07 06:26:51;;;;;;;7.60;3.67;;;40.60;1.00;;;;;;5072376;28;20461;-68
2023/05/07 06:29:18;;;;;;;6.43;3.47;;;40.90;1.00;;;;;;5065574;28;20465;-64
2023/05/07 06:31:46;;;;;;;5.90;3.90;;;41.40;1.00;;;;;;5062687;28;20472;-64
2023/05/07 06:34:14;;;;;;;5.30;4.13;;;41.80;1.00;;;;;;5061180;28;20484;-64
2023/05/07 06:36:40;;;;;;;5.30;3.57;;;42.30;1.00;;;;;;5062569;28;20836;-64
2023/05/07 06:39:07;;;;;;;6.00;3.50;;;42.30;1.00;;;;;;5063864;28;20457;-65
2023/05/07 06:41:34;;;;;;;5.97;4.27;;;42.20;1.00;;;;;;5066407;28;20472;-64
2023/05/07 06:44:01;;;;;;;5.23;3.47;;;42.70;1.00;;;;;;5064603;28;20488;-65
2023/05/07 06:46:29;;;;;;;5.60;3.87;;;43.40;1.00;;;;;;5064788;28;20476;-64
2023/05/07 06:48:57;;;;;;;5.40;3.90;;;43.70;1.00;;;;;;5067221;28;20461;-65
2023/05/07 06:51:24;;;;;;;5.03;3.90;;;43.90;1.00;;;;;;5064135;28;20499;-65
2023/05/07 06:53:50;;;;;;;5.90;3.70;;;44.20;1.00;;;;;;5065135;28;20467;-69
2023/05/07 06:56:17;;;;;;;6.07;4.03;;;44.30;1.00;;;;;;5063558;28;20473;-68
2023/05/07 06:58:44;;;;;;;4.83;3.50;;;44.50;1.00;;;;;;5066912;28;20473;-71
2023/05/07 07:01:11;;;;;;;7.33;4.43;;;44.30;1.00;;;;;;5062523;28;20465;-70
2023/05/07 07:03:37;;;;;;;5.80;4.43;;;44.20;1.00;;;;;;5065067;28;20453;-70
2023/05/07 07:06:06;;;;;;;6.73;4.10;;;44.30;1.00;;;;;;5066562;28;20484;-70
2023/05/07 07:08:33;;;;;;;5.13;3.60;;;44.70;1.00;;;;;;5068395;28;20460;-70
2023/05/07 07:10:59;;;;;;;6.10;3.87;;;45.10;1.00;;;;;;5063392;28;20464;-70
2023/05/07 07:13:26;;;;;;;6.00;4.60;;;45.50;1.00;;;;;;5069558;28;20461;-70
2023/05/07 07:15:53;;;;;;;5.67;3.87;;;45.60;1.00;;;;;;5057712;28;20472;-70
2023/05/07 07:18:20;;;;;;;5.90;4.17;;;44.80;1.00;;;;;;5068152;28;20509;-69
2023/05/07 07:20:46;;;;;;;5.93;4.20;;;43.60;1.00;;;;;;5063386;28;23017;-70
2023/05/07 07:23:15;;;;;;;5.30;4.10;;;43.50;1.00;;;;;;5064835;28;20863;-69
2023/05/07 07:25:41;;;;;;;4.87;3.80;;;44.10;1.00;;;;;;5066796;28;20542;-69
2023/05/07 07:28:08;;;;;;;6.10;4.30;;;45.00;1.00;;;;;;5064914;28;20991;-69
2023/05/07 07:30:35;;;;;;;6.43;4.53;;;45.50;1.00;;;;;;5067220;28;21090;-70
2023/05/07 07:33:02;;;;;;;7.10;4.70;;;45.60;1.00;;;;;;5070314;28;20570;-69
2023/05/07 07:35:29;;;;;;;5.90;3.90;;;45.70;1.00;;;;;;5069469;28;20558;-68
2023/05/07 07:37:56;;;;;;;5.27;4.40;;;45.50;1.00;;;;;;5069792;28;20484;-68
2023/05/07 07:40:24;;;;;;;8.43;4.13;;;45.00;1.00;;;;;;5069632;28;20465;-68
2023/05/07 07:42:51;;;;;;;6.20;4.10;;;44.90;1.00;;;;;;5069789;28;20457;-66
2023/05/07 07:45:18;;;;;;;5.87;3.87;;;44.30;1.00;;;;;;5063862;28;20543;-68
2023/05/07 07:47:45;;;;;;;5.67;4.27;;;43.30;1.00;;;;;;5067138;28;20484;-68
2023/05/07 07:50:11;;;;;;;5.90;4.40;;;42.00;1.00;;;;;;5069207;28;20461;-68
2023/05/07 07:52:38;;;;;;;8.03;5.00;;;40.50;1.00;;;;;;5068961;28;20476;-68
2023/05/07 07:55:06;;;;;;;5.77;4.40;;;39.80;1.00;;;;;;5066425;28;20504;-69
2023/05/07 07:57:34;;;;;;;8.40;5.03;;;40.50;1.00;;;;;;5067959;28;20469;-70
2023/05/07 08:00:02;;;;;;;5.93;4.87;;;41.10;1.00;;;;;;5066101;28;20464;-71
2023/05/07 08:02:28;;;;;;;6.53;4.53;;;41.80;1.00;;;;;;5065014;28;20481;-70
2023/05/07 08:04:55;;;;;;;5.87;5.17;;;41.80;1.00;;;;;;5065223;28;20980;-70
2023/05/07 08:07:22;;;;;;;6.50;4.63;;;41.70;1.00;;;;;;5068071;28;20453;-70
2023/05/07 08:09:49;;;;;;;5.93;4.43;;;41.90;1.00;;;;;;5066761;28;20492;-71
2023/05/07 08:12:16;;;;;;;6.80;4.97;;;41.90;1.00;;;;;;5064747;28;20532;-70
2023/05/07 08:14:44;;;;;;;6.93;4.90;;;42.20;1.00;;;;;;5063464;28;20484;-71
2023/05/07 08:17:11;;;;;;;8.40;5.17;;;42.40;1.00;;;;;;5067085;28;20461;-71
2023/05/07 08:19:38;;;;;;;8.10;4.70;;;42.60;1.00;;;;;;5066831;28;20460;-70
2023/05/07 08:22:05;;;;;;;6.10;4.97;;;42.90;1.00;;;;;;5066794;28;20468;-71
2023/05/07 08:24:32;;;;;;;6.90;4.60;;;43.80;1.00;;;;;;5065994;28;20493;-70
2023/05/07 08:26:58;;;;;;;7.70;4.43;;;44.20;1.00;;;;;;5064542;28;20465;-70
2023/05/07 08:29:25;;;;;;;6.70;5.40;;;43.80;1.00;;;;;;5068758;28;20794;-70
2023/05/07 08:31:53;;;;;;;6.93;5.17;;;43.40;1.00;;;;;;5065418;28;20477;-70
2023/05/07 08:34:23;;;;;;;5.90;4.57;;;42.90;1.00;;;;;;5062578;28;20482;-70
2023/05/07 08:36:49;;;;;;;6.83;5.00;;;41.90;1.00;;;;;;5069147;28;20496;-68
2023/05/07 08:39:17;;;;;;;7.10;5.50;;;41.80;1.00;;;;;;5063894;28;20468;-69
2023/05/07 08:41:46;;;;;;;6.33;4.97;;;42.20;1.00;;;;;;5061336;28;20458;-68
2023/05/07 08:44:14;;;;;;;9.90;4.70;;;42.50;1.00;;;;;;5063577;28;20513;-70
2023/05/07 08:46:43;;;;;;;6.80;5.20;;;43.00;1.00;;;;;;5057583;28;20527;-66
2023/05/07 08:49:11;;;;;;;5.67;4.30;;;43.60;1.00;;;;;;5059296;28;20510;-67
2023/05/07 08:51:38;;;;;;;6.57;4.13;;;44.20;1.00;;;;;;5063934;28;20461;-66
2023/05/07 08:54:06;;;;;;;8.00;4.53;;;44.20;1.00;;;;;;5063320;28;20694;-67
2023/05/07 08:56:33;;;;;;;5.67;4.30;;;43.70;1.00;;;;;;5065652;28;20463;-66
2023/05/07 08:59:00;;;;;;;7.67;4.73;;;42.80;1.00;;;;;;5067103;28;20461;-67
2023/05/07 09:01:27;;;;;;;6.10;4.80;;;42.30;1.00;;;;;;5065908;28;20477;-67
2023/05/07 09:03:54;;;;;;;5.87;4.17;;;42.10;1.00;;;;;;5065270;28;20863;-66
2023/05/07 09:06:22;;;;;;;9.90;4.73;;;41.50;1.00;;;;;;5056925;28;20488;-67
2023/05/07 09:08:53;;;;;;;5.97;4.20;;;41.70;1.00;;;;;;5064546;28;20491;-67
2023/05/07 09:11:22;;;;;;;7.43;4.10;;;42.00;1.00;;;;;;5065596;28;20530;-67
2023/05/07 09:13:49;;;;;;;6.47;4.40;;;42.40;1.00;;;;;;5068508;28;20488;-68
2023/05/07 09:16:16;;;;;;;5.53;3.60;;;42.70;1.00;;;;;;5065087;28;20540;-67
2023/05/07 09:18:44;;;;;;;8.53;4.40;;;42.90;1.00;;;;;;5063032;28;20465;-66
2023/05/07 09:21:12;;;;;;;4.90;3.90;;;42.60;1.00;;;;;;5064315;28;20500;-66
2023/05/07 09:23:40;;;;;;;5.20;3.57;;;43.00;1.00;;;;;;5059056;28;20465;-67
2023/05/07 09:26:11;;;;;;;5.70;3.80;;;43.30;1.00;;;;;;5064997;28;20519;-66
2023/05/07 09:28:40;;;;;;;5.80;3.00;;;43.00;1.00;;;;;;5067722;28;20457;-66
2023/05/07 09:31:06;;;;;;;5.90;3.70;;;43.00;1.00;;;;;;5066233;28;21062;-68
2023/05/07 09:33:33;;;;;;;6.30;4.00;;;42.00;1.00;;;;;;5065518;28;20460;-65
2023/05/07 09:36:03;;;;;;;7.80;3.80;;;40.50;1.00;;;;;;5064611;28;20481;-66
2023/05/07 09:38:30;;;;;;;5.10;3.53;;;39.40;1.00;;;;;;5064582;28;20469;-66
2023/05/07 09:41:06;;;;;;;4.80;3.30;;;39.10;1.00;;;;;;5065972;28;20460;-67
2023/05/07 09:43:35;;;;;;;5.70;2.87;;;38.40;1.00;;;;;;5064412;28;20984;-66
2023/05/07 09:46:04;;;;;;;8.20;4.00;;;38.60;1.00;;;;;;5066027;28;20578;-66
2023/05/07 09:48:31;;;;;;;4.80;3.30;;;38.80;1.00;;;;;;5067387;28;20473;-66
2023/05/07 09:51:03;;;;;;;5.67;3.90;;;39.00;1.00;;;;;;5064035;28;20515;-66
2023/05/07 09:53:34;;;;;;;8.73;4.13;;;40.20;1.00;;;;;;5065389;28;20469;-67
2023/05/07 09:56:01;;;;;;;4.87;3.07;;;40.70;1.00;;;;;;5064470;28;20596;-65
2023/05/07 09:58:30;;;;;;;5.47;3.00;;;40.80;1.00;;;;;;5065543;28;20473;-65
2023/05/07 10:00:58;;;;;;;5.47;2.83;;;41.20;1.00;;;;;;5063819;28;20556;-66
2023/05/07 10:03:28;;;;;;;5.57;2.27;;;41.60;1.00;;;;;;5065339;28;20465;-66
2023/05/07 10:05:55;;;;;;;4.50;2.73;;;41.40;1.00;;;;;;5058652;28;20482;-66
2023/05/07 10:08:22;;;;;;;5.67;3.20;;;40.20;1.00;;;;;;5054366;28;20472;-66
2023/05/07 10:10:50;;;;;;;5.23;2.50;;;39.10;1.00;;;;;;5055591;28;20478;-67
2023/05/07 10:13:18;;;;;;;5.40;2.47;;;38.20;1.00;;;;;;5052258;28;20474;-66
2023/05/07 10:15:46;;;;;;;6.00;2.33;;;36.70;1.00;;;;;;5052401;28;20485;-65
2023/05/07 10:18:14;;;;;;;5.10;2.50;;;35.90;1.00;;;;;;5052414;28;20472;-65
2023/05/07 10:20:44;;;;;;;6.10;2.63;;;35.00;1.00;;;;;;5064348;28;20465;-65
2023/05/07 10:23:15;;;;;;;5.67;2.47;;;34.00;1.00;;;;;;5060427;28;20588;-65
2023/05/07 10:25:42;;;;;;;5.83;2.40;;;33.20;1.00;;;;;;5057385;28;20481;-65
2023/05/07 10:28:12;;;;;;;6.27;2.90;;;32.20;1.00;;;;;;5066140;28;21015;-65
2023/05/07 10:30:53;;;;;;;5.50;2.50;;;31.60;1.00;;;;;;5064970;28;20473;-65
2023/05/07 10:33:24;;;;;;;4.73;2.47;;;31.10;1.00;;;;;;5067095;28;21000;-69
2023/05/07 10:35:51;;;;;;;4.60;2.40;;;30.80;1.00;;;;;;5062899;28;20492;-68
2023/05/07 10:38:18;;;;;;;4.50;2.50;;;30.50;1.00;;;;;;5063835;28;20472;-68
2023/05/07 10:40:45;;;;;;;7.20;3.13;;;30.30;1.00;;;;;;5059510;28;21004;-68
2023/05/07 10:43:12;;;;;;;6.80;3.90;;;30.10;1.00;;;;;;5063811;28;20476;-68
2023/05/07 10:45:39;;;;;;;6.80;3.10;;;29.80;1.00;;;;;;5059629;28;20481;-67
2023/05/07 10:48:12;;;;;;;6.00;2.90;;;29.50;1.00;;;;;;5064895;28;20970;-69
2023/05/07 10:50:40;;;;;;;4.80;2.47;;;29.40;1.00;;;;;;5059877;28;20465;-69
2023/05/07 10:53:24;;;;;;;5.33;2.50;;;29.40;1.00;;;;;;5059860;28;20477;-67
2023/05/07 10:55:52;;;;;;;7.03;2.87;;;29.30;1.00;;;;;;5067162;28;20472;-66
2023/05/07 10:58:26;;;;;;;6.07;2.73;;;29.20;1.00;;;;;;5065823;28;20880;-66
2023/05/07 11:00:58;;;;;;;5.07;3.00;;;29.10;1.00;;;;;;5057997;28;21008;-67
2023/05/07 11:03:26;;;;;;;5.27;3.03;;;28.80;1.00;;;;;;5066886;28;20469;-67
2023/05/07 11:06:10;;;;;;;6.80;3.23;;;28.60;1.00;;;;;;5065122;28;20955;-66
2023/05/07 11:08:54;;;;;;;6.30;3.40;;;28.40;1.00;;;;;;5066447;28;20495;-67
2023/05/07 11:11:21;;;;;;;6.03;3.27;;;28.20;1.00;;;;;;5069806;28;20457;-67
2023/05/07 11:13:50;;;;;;;5.03;3.00;;;28.20;1.00;;;;;;5062811;28;20466;-67
2023/05/07 11:16:18;;;;;;;5.47;3.63;;;28.10;1.00;;;;;;5060182;28;20461;-67
2023/05/07 11:18:51;;;;;;;5.43;3.10;;;28.10;1.00;;;;;;5061697;28;20461;-67
2023/05/07 11:21:35;;;;;;;4.83;2.83;;;28.30;1.00;;;;;;5065013;28;20469;-68
2023/05/07 11:24:03;;;;;;;6.13;3.20;;;28.00;1.00;;;;;;5068565;28;20949;-67
2023/05/07 11:26:31;;;;;;;5.17;2.83;;;27.80;1.00;;;;;;5064555;28;20480;-67
2023/05/07 11:29:00;;;;;;;5.40;2.90;;;27.80;1.00;;;;;;5067603;28;21333;-70
2023/05/07 11:31:29;;;;;;;4.57;2.60;;;27.90;1.00;;;;;;5064867;28;20476;-70
2023/05/07 11:33:58;;;;;;;6.53;2.83;;;27.50;1.00;;;;;;5066602;28;20547;-70
2023/05/07 11:36:25;;;;;;;6.33;2.60;;;27.40;1.00;;;;;;5067586;28;20457;-70
2023/05/07 11:38:52;;;;;;;6.00;3.60;;;27.50;1.00;;;;;;5067275;28;20485;-70
2023/05/07 11:41:20;;;;;;;6.30;3.07;;;27.50;1.00;;;;;;5064651;28;20464;-69
2023/05/07 11:43:58;;;;;;;5.80;3.07;;;27.40;1.00;;;;;;5069404;28;20465;-69
2023/05/07 11:46:25;;;;;;;5.97;3.40;;;27.30;1.00;;;;;;5066617;28;20477;-70
2023/05/07 11:48:52;;;;;;;8.60;3.80;;;27.20;1.40;;;;;;5067972;28;20968;-69
2023/05/07 11:51:25;;;;;;;6.20;3.60;;;27.10;1.40;;;;;;5064273;28;20594;-69
2023/05/07 11:53:52;;;;;;;6.27;3.20;;;27.10;1.50;;;;;;5068675;28;20480;-69
2023/05/07 11:56:20;;;;;;;11.57;3.80;;;27.20;2.30;;;;;;5065479;28;20464;-71
2023/05/07 11:58:48;;;;;;;5.53;3.07;;;27.20;2.10;;;;;;5065794;28;20465;-69
2023/05/07 12:01:16;;;;;;;4.80;3.17;;;27.30;1.10;;;;;;5065363;28;20572;-70
2023/05/07 12:03:45;;;;;;;4.13;2.40;;;27.50;1.00;;;;;;5067436;28;20548;-69
2023/05/07 12:06:12;;;;;;;5.23;2.50;;;27.30;1.00;;;;;;5065978;28;20484;-69
2023/05/07 12:08:41;;;;;;;6.70;2.80;;;27.10;1.00;;;;;;5060453;28;20468;-70
2023/05/07 12:11:11;;;;;;;5.20;2.30;;;27.10;1.70;;;;;;5063347;28;20476;-69
2023/05/07 12:13:38;;;;;;;5.17;2.63;;;27.20;1.10;;;;;;5063831;28;20461;-69
2023/05/07 12:16:06;;;;;;;6.63;3.60;;;27.20;1.00;;;;;;5064353;28;20477;-69
2023/05/07 12:18:34;;;;;;;4.60;2.43;;;27.30;1.00;;;;;;5066507;28;20469;-69
2023/05/07 12:21:01;;;;;;;6.37;2.60;;;27.30;1.00;;;;;;5068372;28;20522;-69
2023/05/07 12:23:29;;;;;;;5.90;2.10;;;27.00;1.00;;;;;;5067374;28;20482;-69
2023/05/07 12:25:57;;;;;;;5.30;2.77;;;26.70;1.00;;;;;;5068443;28;20488;-69
2023/05/07 12:28:24;;;;;;;7.80;2.70;;;26.80;1.00;;;;;;5067824;28;20465;-69
2023/05/07 12:30:52;;;;;;;5.20;3.30;;;26.90;1.00;;;;;;5064577;28;20481;-69
2023/05/07 12:33:21;;;;;;;7.00;3.07;;;26.80;1.00;;;;;;5064885;28;20469;-70
2023/05/07 12:35:48;;;;;;;4.90;2.40;;;26.60;1.00;;;;;;5069231;28;20500;-69
2023/05/07 12:38:17;;;;;;;10.50;3.20;;;26.40;1.00;;;;;;5065759;28;20465;-70
2023/05/07 12:40:46;;;;;;;6.13;2.40;;;26.50;1.20;;;;;;5065004;28;20472;-70
2023/05/07 12:43:18;;;;;;;4.47;2.27;;;26.50;1.00;;;;;;5066410;28;20570;-70
2023/05/07 12:45:45;;;;;;;6.70;2.93;;;26.50;1.00;;;;;;5065363;28;20490;-70
2023/05/07 12:48:12;;;;;;;4.80;2.50;;;26.70;1.50;;;;;;5065349;28;20517;-69
2023/05/07 12:50:39;;;;;;;8.07;2.87;;;26.80;1.00;;;;;;5063954;28;20465;-70
2023/05/07 12:53:07;;;;;;;6.17;2.83;;;26.80;1.00;;;;;;5065558;28;20519;-69